Henniker, NH

12:18 AM EDT on March 28, 2015 (GMT -0400)
Contoocook River | | Change Station
CLOSE
Current Station
Personal Weather Station
Location: Henniker, NH
Elevation: 522 ft
Nearby Weather Stations

Elev 522 ft 43.16 °N, 71.86 °W | Updated 21 seconds ago

Overcast
Overcast
35.2 °F
Feels Like 33 °F
N
3.1
Wind Variable Wind from SW
Gusts 5.4 mph

Today
High -- | Low -- °F
--% Chance of Precip.
Yesterday
High -- | Low -- °F
Precip. -- in
6:36 AM 7:08 PM
First Quarter, 58% visible
Pressure 29.78 in
Visibility 10.0 miles
Clouds Few 2500 ft
Overcast 7000 ft
Windchill 33 °F
Dew Point 28 °F
Humidity 74%
Rainfall 0.00 in
Snow Depth Not available.
UV 0 out of 12
Pollen .60 out of 12
Air Quality Not available.
Flu Activity Not available.
METAR KCON 280351Z AUTO 32003KT 10SM FEW025 OVC070 03/M02 A2976 RMK AO2 SLP082 T00281022

More Conditions Fewer Conditions

Pressure 29.78 in
Visibility 10.0 miles
Clouds Few 2500 ft
Overcast 7000 ft
Windchill 33 °F
Dew Point 28 °F
Humidity 74%
Rainfall 0.00 in
Snow Depth Not available.
UV 0 out of 12
Pollen .60 out of 12
Air Quality Not available.
Flu Activity Not available.
METAR KCON 280351Z AUTO 32003KT 10SM FEW025 OVC070 03/M02 A2976 RMK AO2 SLP082 T00281022

More Conditions Fewer Conditions

10-Day Weather Forecast

Almanac

Astronomy

Mar. 28, 2015 Rise Set
Actual Time
Civil Twilight
Nautical Twilight
Astronomical Twilight
Moon
Length of Visible Light
Length of Day
Tomorrow will be .
, % of the Moon is Illuminated

Today's Extremes

State Highs State Lows

Community

WunderPhotos

Upload Photos

1,808,927 photos uploaded!

WunderBlogs® & News

Nearby

Air Quality

  Air Quality AQ Index Pollutant
Not available.

Snow Depth

Station Depth Elevation

Earthquake Activity

City Distance Mag. Time & Date
Minimum magnitude displayed is 2.5.

Coastal Water Temperatures

Place Temperature

Stations

Nearby Weather Stations

Station Location Temp. Windchill Dew Point Humidity Wind Precip. Elev Updated Type